EXS22A EGKK-LCPH
Flight info
| Callsign | EXS22A |
|---|---|
| Flight time | N/A |
| Altitude | 37000 |
| Route | ODVIK Y311 DVR L9 KONAN DCT KOK DCT SISGA DCT RITAX DCT BANUX DCT VEKIR DCT RADIZ DCT GORAV DCT MODRA DCT MEDUX UM867 KOGAT DCT ERANA UL737 TSL UN130 MES UL609 RDS UM601 EVENO DCT DASNI M32 TOBAL |
| Aircraft | A21N/M-SDE2E3FGHIRWXY/LB1 |
Departure
| Time | N/A |
|---|---|
| Airport | London Gatwick Airport (EGKK) |
Arrival
| Time | 2026-04-21 13:53 |
|---|---|
| Airport | Paphos International Airport (LCPH) |
| Time | Latitude | Longitude | Altitude | Speed | Heading |
|---|---|---|---|---|---|
| 2026-04-21 11:52 | 44.04924 | 18.45694 | 37017 ft | 495 kts | 133° |
| 2026-04-21 11:52 | 44.02699 | 18.49318 | 37021 ft | 494 kts | 133° |
| 2026-04-21 11:52 | 43.98259 | 18.56555 | 37019 ft | 494 kts | 133° |
| 2026-04-21 11:53 | 43.93806 | 18.63819 | 37024 ft | 494 kts | 133° |
| 2026-04-21 11:53 | 43.89363 | 18.71071 | 37018 ft | 493 kts | 133° |
| 2026-04-21 11:54 | 43.84924 | 18.78324 | 37015 ft | 493 kts | 133° |
| 2026-04-21 11:54 | 43.80498 | 18.85560 | 37016 ft | 492 kts | 133° |
| 2026-04-21 11:55 | 43.76080 | 18.92790 | 37021 ft | 492 kts | 133° |
| 2026-04-21 11:55 | 43.71665 | 19.00026 | 37026 ft | 492 kts | 133° |
| 2026-04-21 11:56 | 43.67295 | 19.07200 | 37019 ft | 492 kts | 133° |
| 2026-04-21 11:56 | 43.62857 | 19.14502 | 37013 ft | 492 kts | 133° |
| 2026-04-21 11:57 | 43.59204 | 19.20517 | 37022 ft | 492 kts | 133° |
| 2026-04-21 11:57 | 43.54066 | 19.28976 | 37025 ft | 492 kts | 133° |
| 2026-04-21 11:58 | 43.49669 | 19.36213 | 37018 ft | 493 kts | 133° |
| 2026-04-21 11:58 | 43.45265 | 19.43443 | 37027 ft | 493 kts | 133° |
| 2026-04-21 11:59 | 43.40847 | 19.50685 | 37028 ft | 494 kts | 133° |
| 2026-04-21 11:59 | 43.36432 | 19.57913 | 37022 ft | 494 kts | 133° |
| 2026-04-21 12:00 | 43.32013 | 19.65125 | 37018 ft | 493 kts | 133° |
| 2026-04-21 12:00 | 43.27591 | 19.72332 | 37020 ft | 493 kts | 133° |
| 2026-04-21 12:01 | 43.23165 | 19.79540 | 37019 ft | 494 kts | 133° |
| 2026-04-21 12:01 | 43.18728 | 19.86753 | 37022 ft | 495 kts | 133° |
| 2026-04-21 12:02 | 43.12057 | 19.97582 | 37034 ft | 497 kts | 133° |
| 2026-04-21 12:03 | 43.07591 | 20.04813 | 37038 ft | 498 kts | 133° |
| 2026-04-21 12:03 | 43.03082 | 20.11983 | 37037 ft | 496 kts | 139° |
| 2026-04-21 12:03 | 43.00461 | 20.14972 | 37043 ft | 488 kts | 151° |
| 2026-04-21 12:04 | 42.97602 | 20.17462 | 37034 ft | 487 kts | 153° |
| 2026-04-21 12:04 | 42.91903 | 20.22245 | 37048 ft | 486 kts | 153° |
| 2026-04-21 12:05 | 42.86145 | 20.27071 | 37047 ft | 486 kts | 153° |
| 2026-04-21 12:05 | 42.80381 | 20.31894 | 37047 ft | 486 kts | 153° |
| 2026-04-21 12:06 | 42.74622 | 20.36712 | 37050 ft | 485 kts | 153° |
| 2026-04-21 12:06 | 42.68878 | 20.41508 | 37051 ft | 485 kts | 153° |
| 2026-04-21 12:07 | 42.63138 | 20.46310 | 37046 ft | 485 kts | 152° |
| 2026-04-21 12:07 | 42.57705 | 20.51794 | 37038 ft | 488 kts | 145° |
| 2026-04-21 12:08 | 42.52420 | 20.57572 | 37035 ft | 488 kts | 145° |
| 2026-04-21 12:08 | 42.47139 | 20.63346 | 37030 ft | 488 kts | 145° |
| 2026-04-21 12:09 | 42.41847 | 20.69126 | 37030 ft | 488 kts | 145° |
| 2026-04-21 12:09 | 42.36576 | 20.74872 | 37030 ft | 487 kts | 145° |
| 2026-04-21 12:10 | 42.31293 | 20.80619 | 37025 ft | 487 kts | 145° |
| 2026-04-21 12:10 | 42.26016 | 20.86345 | 37016 ft | 487 kts | 145° |
| 2026-04-21 12:11 | 42.20735 | 20.92059 | 37014 ft | 486 kts | 145° |
| 2026-04-21 12:11 | 42.15457 | 20.97761 | 37006 ft | 486 kts | 145° |
| 2026-04-21 12:12 | 42.10178 | 21.03449 | 37000 ft | 485 kts | 145° |
| 2026-04-21 12:12 | 42.04907 | 21.09127 | 36991 ft | 485 kts | 145° |
| 2026-04-21 12:13 | 41.99648 | 21.14799 | 36981 ft | 485 kts | 145° |
| 2026-04-21 12:13 | 41.94387 | 21.20464 | 36981 ft | 484 kts | 145° |
| 2026-04-21 12:14 | 41.89126 | 21.26124 | 36974 ft | 484 kts | 145° |
| 2026-04-21 12:14 | 41.83869 | 21.31782 | 36975 ft | 484 kts | 145° |
| 2026-04-21 12:15 | 41.78606 | 21.37440 | 36981 ft | 485 kts | 145° |
| 2026-04-21 12:15 | 41.73338 | 21.43104 | 36978 ft | 485 kts | 145° |
| 2026-04-21 12:16 | 41.68034 | 21.48651 | 36955 ft | 480 kts | 153° |
| 2026-04-21 12:16 | 41.65102 | 21.50664 | 36948 ft | 470 kts | 165° |
| 2026-04-21 12:16 | 41.61979 | 21.51795 | 36937 ft | 460 kts | 178° |
| 2026-04-21 12:17 | 41.55670 | 21.52320 | 36920 ft | 457 kts | 178° |
| 2026-04-21 12:17 | 41.52548 | 21.53305 | 36916 ft | 467 kts | 165° |
| 2026-04-21 12:17 | 41.49588 | 21.55174 | 36915 ft | 475 kts | 152° |
| 2026-04-21 12:17 | 41.46943 | 21.57859 | 36908 ft | 482 kts | 139° |
| 2026-04-21 12:18 | 41.45428 | 21.60034 | 36906 ft | 486 kts | 130° |
| 2026-04-21 12:18 | 41.43579 | 21.63822 | 36909 ft | 490 kts | 117° |
| 2026-04-21 12:18 | 41.42344 | 21.68049 | 36901 ft | 492 kts | 104° |
| 2026-04-21 12:18 | 41.41786 | 21.72531 | 36908 ft | 491 kts | 91° |
| 2026-04-21 12:19 | 41.41628 | 21.77071 | 36901 ft | 491 kts | 97° |
| 2026-04-21 12:19 | 41.40902 | 21.81518 | 36903 ft | 492 kts | 110° |
| 2026-04-21 12:19 | 41.39531 | 21.85669 | 36910 ft | 490 kts | 123° |
| 2026-04-21 12:20 | 41.35483 | 21.92920 | 36924 ft | 489 kts | 133° |
| 2026-04-21 12:20 | 41.31139 | 21.99912 | 36937 ft | 492 kts | 132° |
| 2026-04-21 12:21 | 41.26789 | 22.06957 | 36957 ft | 495 kts | 132° |
| 2026-04-21 12:21 | 41.22426 | 22.14049 | 36972 ft | 497 kts | 132° |
| 2026-04-21 12:22 | 41.17975 | 22.21092 | 36987 ft | 497 kts | 136° |
| 2026-04-21 12:22 | 41.13023 | 22.27451 | 36989 ft | 494 kts | 143° |
| 2026-04-21 12:23 | 41.07698 | 22.33190 | 36984 ft | 494 kts | 145° |
| 2026-04-21 12:23 | 41.02377 | 22.38936 | 36976 ft | 493 kts | 145° |
| 2026-04-21 12:24 | 40.97291 | 22.45099 | 36957 ft | 494 kts | 139° |
| 2026-04-21 12:24 | 40.92455 | 22.51499 | 36955 ft | 494 kts | 139° |
| 2026-04-21 12:25 | 40.87629 | 22.57881 | 36951 ft | 493 kts | 139° |
| 2026-04-21 12:25 | 40.82770 | 22.64289 | 36940 ft | 493 kts | 139° |
| 2026-04-21 12:26 | 40.77911 | 22.70678 | 36939 ft | 492 kts | 139° |
| 2026-04-21 12:26 | 40.73049 | 22.77052 | 36931 ft | 492 kts | 139° |
| 2026-04-21 12:27 | 40.68197 | 22.83398 | 36921 ft | 491 kts | 139° |
| 2026-04-21 12:27 | 40.63352 | 22.89720 | 36909 ft | 490 kts | 139° |
| 2026-04-21 12:28 | 40.58505 | 22.96031 | 36904 ft | 489 kts | 139° |
| 2026-04-21 12:28 | 40.53670 | 23.02312 | 36902 ft | 489 kts | 139° |
| 2026-04-21 12:29 | 40.48834 | 23.08581 | 36900 ft | 488 kts | 139° |
| 2026-04-21 12:29 | 40.44001 | 23.14832 | 36903 ft | 488 kts | 139° |
| 2026-04-21 12:30 | 40.39167 | 23.21074 | 36903 ft | 488 kts | 139° |
| 2026-04-21 12:30 | 40.34325 | 23.27310 | 36904 ft | 487 kts | 139° |
| 2026-04-21 12:31 | 40.29455 | 23.33571 | 36908 ft | 487 kts | 139° |
| 2026-04-21 12:31 | 40.24615 | 23.39779 | 36907 ft | 487 kts | 139° |
| 2026-04-21 12:32 | 40.19790 | 23.45954 | 36904 ft | 487 kts | 139° |
| 2026-04-21 12:32 | 40.14943 | 23.52144 | 36901 ft | 487 kts | 139° |
| 2026-04-21 12:33 | 40.10091 | 23.58328 | 36913 ft | 487 kts | 139° |
| 2026-04-21 12:33 | 40.05228 | 23.64513 | 36903 ft | 488 kts | 139° |
| 2026-04-21 12:34 | 40.00368 | 23.70682 | 36907 ft | 488 kts | 139° |
| 2026-04-21 12:34 | 39.95499 | 23.76851 | 36909 ft | 488 kts | 139° |
| 2026-04-21 12:35 | 39.90655 | 23.82974 | 36916 ft | 488 kts | 139° |
| 2026-04-21 12:35 | 39.85772 | 23.89132 | 36912 ft | 488 kts | 139° |
| 2026-04-21 12:36 | 39.80888 | 23.95280 | 36917 ft | 489 kts | 139° |
| 2026-04-21 12:36 | 39.76000 | 24.01419 | 36914 ft | 489 kts | 139° |
| 2026-04-21 12:37 | 39.71110 | 24.07549 | 36918 ft | 489 kts | 139° |
| 2026-04-21 12:37 | 39.66215 | 24.13672 | 36918 ft | 488 kts | 140° |
| 2026-04-21 12:38 | 39.61320 | 24.19781 | 36920 ft | 488 kts | 140° |
| 2026-04-21 12:38 | 39.56424 | 24.25880 | 36920 ft | 488 kts | 140° |
| 2026-04-21 12:39 | 39.51532 | 24.31961 | 36921 ft | 487 kts | 140° |
| 2026-04-21 12:39 | 39.46604 | 24.38074 | 36918 ft | 487 kts | 140° |
| 2026-04-21 12:40 | 39.41715 | 24.44127 | 36921 ft | 486 kts | 140° |
| 2026-04-21 12:40 | 39.36824 | 24.50169 | 36919 ft | 486 kts | 140° |
| 2026-04-21 12:41 | 39.31905 | 24.56234 | 36922 ft | 485 kts | 140° |
| 2026-04-21 12:41 | 39.27048 | 24.62210 | 36920 ft | 485 kts | 140° |
| 2026-04-21 12:42 | 39.22163 | 24.68209 | 36921 ft | 485 kts | 140° |
| 2026-04-21 12:42 | 39.17281 | 24.74191 | 36924 ft | 484 kts | 140° |
| 2026-04-21 12:43 | 39.12397 | 24.80164 | 36921 ft | 484 kts | 140° |
| 2026-04-21 12:43 | 39.07517 | 24.86121 | 36926 ft | 483 kts | 140° |
| 2026-04-21 12:44 | 39.02636 | 24.92065 | 36926 ft | 483 kts | 140° |
| 2026-04-21 12:44 | 38.97785 | 24.97963 | 36924 ft | 483 kts | 140° |
| 2026-04-21 12:45 | 38.92899 | 25.03891 | 36928 ft | 483 kts | 140° |
| 2026-04-21 12:45 | 38.88010 | 25.09811 | 36930 ft | 483 kts | 140° |
| 2026-04-21 12:46 | 38.83117 | 25.15724 | 36930 ft | 484 kts | 140° |
| 2026-04-21 12:46 | 38.78213 | 25.21638 | 36932 ft | 484 kts | 140° |
| 2026-04-21 12:47 | 38.73305 | 25.27545 | 36933 ft | 484 kts | 140° |
| 2026-04-21 12:47 | 38.68389 | 25.33450 | 36934 ft | 485 kts | 140° |
| 2026-04-21 12:48 | 38.63463 | 25.39355 | 36939 ft | 485 kts | 140° |
| 2026-04-21 12:48 | 38.58501 | 25.45293 | 36950 ft | 486 kts | 140° |
| 2026-04-21 12:49 | 38.53559 | 25.51194 | 36951 ft | 486 kts | 140° |
| 2026-04-21 12:49 | 38.48616 | 25.57084 | 36955 ft | 487 kts | 140° |
| 2026-04-21 12:50 | 38.43663 | 25.62976 | 36961 ft | 487 kts | 140° |
| 2026-04-21 12:50 | 38.38706 | 25.68860 | 36963 ft | 487 kts | 141° |
| 2026-04-21 12:51 | 38.33746 | 25.74737 | 36965 ft | 487 kts | 141° |
| 2026-04-21 12:51 | 38.28782 | 25.80607 | 36971 ft | 487 kts | 141° |
| 2026-04-21 12:52 | 38.23804 | 25.86482 | 36974 ft | 487 kts | 141° |
| 2026-04-21 12:52 | 38.18835 | 25.92334 | 36970 ft | 487 kts | 141° |
| 2026-04-21 12:53 | 38.13868 | 25.98173 | 36972 ft | 486 kts | 141° |
| 2026-04-21 12:53 | 38.08903 | 26.03998 | 36961 ft | 486 kts | 141° |
| 2026-04-21 12:54 | 38.03934 | 26.09818 | 36964 ft | 486 kts | 141° |
| 2026-04-21 12:54 | 37.99802 | 26.14647 | 36960 ft | 486 kts | 141° |
| 2026-04-21 12:55 | 37.94830 | 26.20449 | 36962 ft | 486 kts | 141° |
| 2026-04-21 12:55 | 37.89875 | 26.26220 | 36954 ft | 486 kts | 141° |
| 2026-04-21 12:56 | 37.84897 | 26.32006 | 36964 ft | 486 kts | 141° |
| 2026-04-21 12:56 | 37.79918 | 26.37782 | 36962 ft | 486 kts | 141° |
| 2026-04-21 12:57 | 37.74934 | 26.43553 | 36958 ft | 486 kts | 141° |
| 2026-04-21 12:57 | 37.69943 | 26.49322 | 36962 ft | 486 kts | 141° |
| 2026-04-21 12:58 | 37.64948 | 26.55083 | 36972 ft | 486 kts | 141° |
| 2026-04-21 12:58 | 37.59952 | 26.60836 | 36968 ft | 487 kts | 141° |
| 2026-04-21 12:59 | 37.54949 | 26.66586 | 36972 ft | 487 kts | 141° |
| 2026-04-21 12:59 | 37.49938 | 26.72337 | 36970 ft | 487 kts | 141° |
| 2026-04-21 13:00 | 37.44924 | 26.78083 | 36970 ft | 488 kts | 141° |
| 2026-04-21 13:00 | 37.39896 | 26.83837 | 36976 ft | 488 kts | 141° |
| 2026-04-21 13:01 | 37.34951 | 26.89672 | 36981 ft | 489 kts | 140° |
| 2026-04-21 13:01 | 37.30039 | 26.95587 | 36976 ft | 489 kts | 140° |
| 2026-04-21 13:02 | 37.25081 | 27.01518 | 36980 ft | 489 kts | 140° |
| 2026-04-21 13:02 | 37.17674 | 27.10331 | 36978 ft | 489 kts | 140° |
| 2026-04-21 13:03 | 37.12732 | 27.16197 | 36985 ft | 489 kts | 140° |
| 2026-04-21 13:03 | 37.07787 | 27.22055 | 36989 ft | 489 kts | 140° |
| 2026-04-21 13:04 | 37.02839 | 27.27907 | 36993 ft | 489 kts | 140° |
| 2026-04-21 13:04 | 36.97862 | 27.33781 | 36992 ft | 489 kts | 140° |
| 2026-04-21 13:05 | 36.93005 | 27.39502 | 36989 ft | 489 kts | 140° |
| 2026-04-21 13:05 | 36.88024 | 27.45358 | 36981 ft | 488 kts | 140° |
| 2026-04-21 13:06 | 36.83078 | 27.51164 | 36979 ft | 488 kts | 140° |
| 2026-04-21 13:06 | 36.78128 | 27.56962 | 36975 ft | 488 kts | 140° |
| 2026-04-21 13:07 | 36.73180 | 27.62748 | 36969 ft | 487 kts | 141° |
| 2026-04-21 13:07 | 36.68230 | 27.68525 | 36968 ft | 488 kts | 140° |
| 2026-04-21 13:08 | 36.63286 | 27.74311 | 36968 ft | 488 kts | 140° |
| 2026-04-21 13:08 | 36.58335 | 27.80080 | 36969 ft | 488 kts | 141° |
| 2026-04-21 13:09 | 36.53370 | 27.85834 | 36966 ft | 488 kts | 141° |
| 2026-04-21 13:09 | 36.48396 | 27.91587 | 36964 ft | 488 kts | 141° |
| 2026-04-21 13:10 | 36.43421 | 27.97333 | 36963 ft | 488 kts | 141° |
| 2026-04-21 13:10 | 36.38408 | 28.03116 | 36965 ft | 489 kts | 140° |
| 2026-04-21 13:11 | 36.34178 | 28.09690 | 36961 ft | 496 kts | 121° |
| 2026-04-21 13:11 | 36.31586 | 28.17629 | 36958 ft | 499 kts | 108° |
| 2026-04-21 13:12 | 36.29489 | 28.25888 | 36961 ft | 499 kts | 108° |
| 2026-04-21 13:12 | 36.27382 | 28.34083 | 36968 ft | 499 kts | 108° |
| 2026-04-21 13:13 | 36.25268 | 28.42287 | 36973 ft | 500 kts | 108° |
| 2026-04-21 13:13 | 36.23149 | 28.50491 | 36980 ft | 500 kts | 108° |
| 2026-04-21 13:14 | 36.21018 | 28.58690 | 36980 ft | 500 kts | 108° |
| 2026-04-21 13:14 | 36.18879 | 28.66891 | 36983 ft | 501 kts | 108° |
| 2026-04-21 13:15 | 36.16734 | 28.75092 | 36987 ft | 501 kts | 108° |
| 2026-04-21 13:15 | 36.14583 | 28.83291 | 36989 ft | 501 kts | 109° |
| 2026-04-21 13:16 | 36.12428 | 28.91482 | 36988 ft | 501 kts | 109° |
| 2026-04-21 13:16 | 36.10267 | 28.99672 | 36989 ft | 501 kts | 109° |
| 2026-04-21 13:17 | 36.08100 | 29.07858 | 36988 ft | 501 kts | 109° |
| 2026-04-21 13:17 | 36.05929 | 29.16031 | 36986 ft | 501 kts | 109° |
| 2026-04-21 13:18 | 36.03753 | 29.24203 | 36983 ft | 500 kts | 109° |
| 2026-04-21 13:18 | 36.01576 | 29.32350 | 36986 ft | 500 kts | 109° |
| 2026-04-21 13:19 | 35.99387 | 29.40519 | 36987 ft | 500 kts | 109° |
| 2026-04-21 13:19 | 35.97197 | 29.48667 | 36982 ft | 500 kts | 109° |
| 2026-04-21 13:20 | 35.95003 | 29.56809 | 36980 ft | 500 kts | 109° |
| 2026-04-21 13:20 | 35.92801 | 29.65004 | 36982 ft | 500 kts | 109° |
| 2026-04-21 13:21 | 35.90624 | 29.73091 | 36979 ft | 500 kts | 109° |
| 2026-04-21 13:21 | 35.88438 | 29.81184 | 36980 ft | 500 kts | 109° |
| 2026-04-21 13:22 | 35.86232 | 29.89321 | 36980 ft | 500 kts | 109° |
| 2026-04-21 13:22 | 35.84022 | 29.97451 | 36982 ft | 500 kts | 109° |
| 2026-04-21 13:23 | 35.81891 | 30.05511 | 36980 ft | 501 kts | 107° |
| 2026-04-21 13:23 | 35.79859 | 30.13716 | 36979 ft | 501 kts | 107° |
| 2026-04-21 13:24 | 35.77805 | 30.21923 | 36958 ft | 501 kts | 108° |
| 2026-04-21 13:24 | 35.76770 | 30.26022 | 36737 ft | 501 kts | 108° |
| 2026-04-21 13:24 | 35.75735 | 30.30110 | 36478 ft | 500 kts | 108° |
| 2026-04-21 13:25 | 35.74698 | 30.34193 | 36227 ft | 499 kts | 108° |
| 2026-04-21 13:25 | 35.73660 | 30.38273 | 35975 ft | 500 kts | 108° |
| 2026-04-21 13:25 | 35.72620 | 30.42353 | 35727 ft | 500 kts | 108° |
| 2026-04-21 13:25 | 35.71579 | 30.46433 | 35482 ft | 500 kts | 108° |
| 2026-04-21 13:26 | 35.70538 | 30.50508 | 35206 ft | 500 kts | 108° |
| 2026-04-21 13:26 | 35.69494 | 30.54584 | 34730 ft | 499 kts | 108° |
| 2026-04-21 13:26 | 35.68448 | 30.58662 | 34013 ft | 501 kts | 107° |
| 2026-04-21 13:26 | 35.67395 | 30.62757 | 33060 ft | 504 kts | 107° |
| 2026-04-21 13:27 | 35.66335 | 30.66875 | 32078 ft | 506 kts | 107° |
| 2026-04-21 13:27 | 35.65269 | 30.71006 | 31080 ft | 509 kts | 107° |
| 2026-04-21 13:27 | 35.64195 | 30.75163 | 30062 ft | 511 kts | 107° |
| 2026-04-21 13:27 | 35.63124 | 30.79302 | 29008 ft | 504 kts | 107° |
| 2026-04-21 13:28 | 35.61987 | 30.83306 | 28356 ft | 489 kts | 112° |
| 2026-04-21 13:28 | 35.60514 | 30.86993 | 28036 ft | 474 kts | 120° |
| 2026-04-21 13:28 | 35.59346 | 30.89301 | 27849 ft | 468 kts | 124° |
| 2026-04-21 13:28 | 35.57556 | 30.92623 | 27408 ft | 465 kts | 123° |
| 2026-04-21 13:29 | 35.55795 | 30.95921 | 26945 ft | 459 kts | 123° |
| 2026-04-21 13:29 | 35.54060 | 30.99177 | 26469 ft | 452 kts | 123° |
| 2026-04-21 13:29 | 35.51781 | 31.03442 | 25849 ft | 442 kts | 123° |
| 2026-04-21 13:29 | 35.50670 | 31.05518 | 25548 ft | 437 kts | 123° |
| 2026-04-21 13:30 | 35.49010 | 31.08614 | 25101 ft | 431 kts | 123° |
| 2026-04-21 13:30 | 35.47374 | 31.11661 | 24656 ft | 425 kts | 123° |
| 2026-04-21 13:30 | 35.45761 | 31.14663 | 24222 ft | 419 kts | 123° |
| 2026-04-21 13:30 | 35.44169 | 31.17624 | 23787 ft | 413 kts | 124° |
| 2026-04-21 13:31 | 35.42589 | 31.20559 | 23316 ft | 412 kts | 124° |
| 2026-04-21 13:31 | 35.41017 | 31.23478 | 22881 ft | 409 kts | 124° |
| 2026-04-21 13:31 | 35.39456 | 31.26374 | 22457 ft | 406 kts | 124° |
| 2026-04-21 13:31 | 35.37904 | 31.29251 | 22032 ft | 403 kts | 124° |
| 2026-04-21 13:32 | 35.36365 | 31.32100 | 21603 ft | 400 kts | 124° |
| 2026-04-21 13:32 | 35.34836 | 31.34930 | 21172 ft | 397 kts | 124° |
| 2026-04-21 13:32 | 35.33318 | 31.37735 | 20762 ft | 394 kts | 124° |
| 2026-04-21 13:32 | 35.31807 | 31.40524 | 20340 ft | 391 kts | 124° |
| 2026-04-21 13:33 | 35.30309 | 31.43289 | 19930 ft | 388 kts | 124° |
| 2026-04-21 13:33 | 35.28820 | 31.46034 | 19521 ft | 386 kts | 124° |
| 2026-04-21 13:33 | 35.27339 | 31.48761 | 19098 ft | 384 kts | 124° |
| 2026-04-21 13:33 | 35.25868 | 31.51468 | 18699 ft | 380 kts | 124° |
| 2026-04-21 13:34 | 35.24408 | 31.54152 | 18289 ft | 378 kts | 124° |
| 2026-04-21 13:34 | 35.22957 | 31.56819 | 17864 ft | 375 kts | 124° |
| 2026-04-21 13:34 | 35.21518 | 31.59462 | 17460 ft | 373 kts | 124° |
| 2026-04-21 13:34 | 35.20084 | 31.62093 | 17058 ft | 370 kts | 124° |
| 2026-04-21 13:35 | 35.18662 | 31.64699 | 16662 ft | 367 kts | 124° |
| 2026-04-21 13:35 | 35.17229 | 31.67324 | 16260 ft | 365 kts | 124° |
| 2026-04-21 13:35 | 35.15843 | 31.69861 | 15875 ft | 363 kts | 124° |
| 2026-04-21 13:35 | 35.14448 | 31.72413 | 15488 ft | 360 kts | 124° |
| 2026-04-21 13:36 | 35.13040 | 31.74986 | 15095 ft | 358 kts | 124° |
| 2026-04-21 13:36 | 35.11664 | 31.77500 | 14717 ft | 355 kts | 124° |
| 2026-04-21 13:36 | 35.10294 | 31.80001 | 14341 ft | 353 kts | 124° |
| 2026-04-21 13:36 | 35.08933 | 31.82483 | 13961 ft | 351 kts | 124° |
| 2026-04-21 13:37 | 35.07580 | 31.84950 | 13562 ft | 348 kts | 124° |
| 2026-04-21 13:37 | 35.06236 | 31.87397 | 13192 ft | 346 kts | 124° |
| 2026-04-21 13:37 | 35.04898 | 31.89831 | 12822 ft | 344 kts | 124° |
| 2026-04-21 13:37 | 35.03570 | 31.92244 | 12457 ft | 341 kts | 124° |
| 2026-04-21 13:38 | 35.02250 | 31.94644 | 12092 ft | 340 kts | 124° |
| 2026-04-21 13:38 | 35.00940 | 31.97022 | 11723 ft | 337 kts | 124° |
| 2026-04-21 13:38 | 34.99637 | 31.99386 | 11381 ft | 335 kts | 124° |
| 2026-04-21 13:38 | 34.98342 | 32.01733 | 11030 ft | 333 kts | 124° |
| 2026-04-21 13:39 | 34.97054 | 32.04066 | 10665 ft | 330 kts | 124° |
| 2026-04-21 13:39 | 34.95787 | 32.06361 | 10491 ft | 320 kts | 124° |
| 2026-04-21 13:39 | 34.94571 | 32.08562 | 10354 ft | 308 kts | 124° |
| 2026-04-21 13:39 | 34.93401 | 32.10681 | 10120 ft | 301 kts | 124° |
| 2026-04-21 13:40 | 34.92188 | 32.12778 | 9886 ft | 304 kts | 130° |
| 2026-04-21 13:40 | 34.90825 | 32.14728 | 9753 ft | 302 kts | 130° |
| 2026-04-21 13:40 | 34.89475 | 32.16682 | 9622 ft | 301 kts | 130° |
| 2026-04-21 13:40 | 34.88127 | 32.18644 | 9318 ft | 302 kts | 130° |
| 2026-04-21 13:41 | 34.86790 | 32.20592 | 9008 ft | 298 kts | 130° |
| 2026-04-21 13:41 | 34.85473 | 32.22508 | 8692 ft | 292 kts | 130° |
| 2026-04-21 13:41 | 34.84179 | 32.24386 | 8386 ft | 286 kts | 130° |
| 2026-04-21 13:41 | 34.82912 | 32.26224 | 8089 ft | 281 kts | 130° |
| 2026-04-21 13:42 | 34.81665 | 32.28031 | 7783 ft | 276 kts | 130° |
| 2026-04-21 13:42 | 34.80441 | 32.29802 | 7498 ft | 271 kts | 130° |
| 2026-04-21 13:42 | 34.79239 | 32.31541 | 7213 ft | 266 kts | 130° |
| 2026-04-21 13:42 | 34.78051 | 32.33259 | 6931 ft | 266 kts | 130° |
| 2026-04-21 13:43 | 34.76852 | 32.34993 | 6649 ft | 267 kts | 130° |
| 2026-04-21 13:43 | 34.75660 | 32.36714 | 6359 ft | 265 kts | 130° |
| 2026-04-21 13:43 | 34.74477 | 32.38418 | 6073 ft | 263 kts | 130° |
| 2026-04-21 13:43 | 34.73328 | 32.40076 | 5785 ft | 263 kts | 130° |
| 2026-04-21 13:44 | 34.72152 | 32.41769 | 5514 ft | 262 kts | 130° |
| 2026-04-21 13:44 | 34.70978 | 32.43459 | 5236 ft | 262 kts | 130° |
| 2026-04-21 13:44 | 34.69806 | 32.45145 | 4946 ft | 260 kts | 130° |
| 2026-04-21 13:44 | 34.68640 | 32.46824 | 4663 ft | 259 kts | 130° |
| 2026-04-21 13:45 | 34.67479 | 32.48494 | 4380 ft | 258 kts | 130° |
| 2026-04-21 13:45 | 34.66325 | 32.50157 | 4101 ft | 257 kts | 130° |
| 2026-04-21 13:45 | 34.65178 | 32.51814 | 3827 ft | 255 kts | 130° |
| 2026-04-21 13:45 | 34.64043 | 32.53454 | 3551 ft | 252 kts | 130° |
| 2026-04-21 13:46 | 34.62926 | 32.55066 | 3268 ft | 249 kts | 130° |
| 2026-04-21 13:46 | 34.61800 | 32.56689 | 3052 ft | 254 kts | 131° |
| 2026-04-21 13:46 | 34.60665 | 32.58329 | 2980 ft | 247 kts | 131° |
| 2026-04-21 13:46 | 34.59600 | 32.59867 | 2987 ft | 229 kts | 131° |
| 2026-04-21 13:47 | 34.58648 | 32.61392 | 2974 ft | 231 kts | 118° |
| 2026-04-21 13:47 | 34.58171 | 32.63213 | 2959 ft | 223 kts | 96° |
| 2026-04-21 13:47 | 34.58255 | 32.65049 | 2676 ft | 217 kts | 74° |
| 2026-04-21 13:47 | 34.58849 | 32.66688 | 2510 ft | 212 kts | 53° |
| 2026-04-21 13:48 | 34.59853 | 32.67993 | 2483 ft | 213 kts | 34° |
| 2026-04-21 13:48 | 34.61163 | 32.68838 | 2496 ft | 213 kts | 14° |
| 2026-04-21 13:48 | 34.62604 | 32.69098 | 2491 ft | 209 kts | 354° |
| 2026-04-21 13:48 | 34.64004 | 32.68775 | 2499 ft | 204 kts | 335° |
| 2026-04-21 13:49 | 34.65229 | 32.67926 | 2497 ft | 203 kts | 317° |
| 2026-04-21 13:49 | 34.66151 | 32.66661 | 2502 ft | 199 kts | 300° |
| 2026-04-21 13:49 | 34.66704 | 32.65150 | 2485 ft | 190 kts | 287° |
| 2026-04-21 13:49 | 34.67148 | 32.63729 | 2497 ft | 170 kts | 291° |
| 2026-04-21 13:50 | 34.67588 | 32.62434 | 2321 ft | 161 kts | 290° |
| 2026-04-21 13:50 | 34.67976 | 32.61216 | 2093 ft | 148 kts | 289° |
| 2026-04-21 13:50 | 34.68315 | 32.60092 | 1907 ft | 137 kts | 289° |
| 2026-04-21 13:50 | 34.68645 | 32.59007 | 1715 ft | 138 kts | 289° |
| 2026-04-21 13:51 | 34.68967 | 32.57926 | 1555 ft | 134 kts | 289° |
| 2026-04-21 13:51 | 34.69280 | 32.56861 | 1369 ft | 135 kts | 289° |
| 2026-04-21 13:51 | 34.69606 | 32.55780 | 1165 ft | 138 kts | 289° |
| 2026-04-21 13:51 | 34.69951 | 32.54669 | 919 ft | 141 kts | 290° |
| 2026-04-21 13:52 | 34.70273 | 32.53568 | 787 ft | 137 kts | 289° |
| 2026-04-21 13:52 | 34.70609 | 32.52470 | 584 ft | 139 kts | 288° |
| 2026-04-21 13:52 | 34.70943 | 32.51372 | 371 ft | 138 kts | 288° |
| 2026-04-21 13:52 | 34.71266 | 32.50294 | 179 ft | 133 kts | 289° |
| 2026-04-21 13:53 | 34.71591 | 32.49239 | 46 ft | 127 kts | 288° |
| 2026-04-21 13:53 | 34.71820 | 32.48470 | 44 ft | 54 kts | 291° |
| 2026-04-21 13:53 | 34.71892 | 32.48232 | 44 ft | 24 kts | 289° |
| 2026-04-21 13:53 | 34.71917 | 32.48109 | 43 ft | 10 kts | 281° |
| 2026-04-21 13:54 | 34.71937 | 32.48065 | 43 ft | 4 kts | 335° |
| 2026-04-21 13:54 | 34.71951 | 32.48078 | 45 ft | 1 kts | 54° |
| 2026-04-21 13:54 | 34.71942 | 32.48086 | 43 ft | 3 kts | 124° |
| 2026-04-21 13:54 | 34.71914 | 32.48163 | 45 ft | 16 kts | 111° |
| 2026-04-21 13:55 | 34.71867 | 32.48319 | 44 ft | 22 kts | 112° |
| 2026-04-21 13:55 | 34.71821 | 32.48415 | 43 ft | 7 kts | 148° |
| 2026-04-21 13:55 | 34.71767 | 32.48404 | 44 ft | 9 kts | 201° |
| 2026-04-21 13:55 | 34.71699 | 32.48379 | 44 ft | 7 kts | 177° |
| 2026-04-21 13:56 | 34.71661 | 32.48424 | 44 ft | 9 kts | 114° |
| 2026-04-21 13:56 | 34.71635 | 32.48513 | 44 ft | 13 kts | 111° |
| 2026-04-21 13:56 | 34.71598 | 32.48628 | 44 ft | 16 kts | 111° |
| 2026-04-21 13:56 | 34.71559 | 32.48757 | 44 ft | 15 kts | 110° |
| 2026-04-21 13:57 | 34.71534 | 32.48838 | 43 ft | 9 kts | 115° |
| 2026-04-21 13:57 | 34.71477 | 32.48878 | 44 ft | 9 kts | 159° |
| 2026-04-21 13:57 | 34.71433 | 32.48903 | 44 ft | 6 kts | 154° |
| 2026-04-21 13:57 | 34.71406 | 32.48918 | 44 ft | 2 kts | 155° |
| 2026-04-21 13:58 | 34.71397 | 32.48923 | 44 ft | 1 kts | 155° |
| 2026-04-21 13:58 | 34.71396 | 32.48924 | 44 ft | 0 kts | 155° |